sensor_id;sensor_type;location;lat;lon;timestamp;temperature;humidity
32728;DHT22;55292;51.844;19.246;2023-04-12T00:00:23;7.00;99.90
32728;DHT22;55292;51.844;19.246;2023-04-12T00:05:46;7.00;99.90
32728;DHT22;55292;51.844;19.246;2023-04-12T00:10:49;6.90;99.90
32728;DHT22;55292;51.844;19.246;2023-04-12T00:15:53;6.80;99.90
32728;DHT22;55292;51.844;19.246;2023-04-12T00:20:55;6.90;99.90
32728;DHT22;55292;51.844;19.246;2023-04-12T00:25:58;6.90;99.90
32728;DHT22;55292;51.844;19.246;2023-04-12T00:31:01;6.80;99.90
32728;DHT22;55292;51.844;19.246;2023-04-12T00:36:04;6.80;99.90
32728;DHT22;55292;51.844;19.246;2023-04-12T00:41:08;6.80;99.90
32728;DHT22;55292;51.844;19.246;2023-04-12T00:46:12;6.80;99.90
32728;DHT22;55292;51.844;19.246;2023-04-12T00:51:15;6.80;99.90
32728;DHT22;55292;51.844;19.246;2023-04-12T00:56:19;6.80;99.90
32728;DHT22;55292;51.844;19.246;2023-04-12T01:01:25;6.70;99.90
32728;DHT22;55292;51.844;19.246;2023-04-12T01:17:05;6.80;99.90
32728;DHT22;55292;51.844;19.246;2023-04-12T01:27:47;6.70;99.90
32728;DHT22;55292;51.844;19.246;2023-04-12T01:32:54;6.70;99.90
32728;DHT22;55292;51.844;19.246;2023-04-12T01:37:58;6.70;99.90
32728;DHT22;55292;51.844;19.246;2023-04-12T01:43:05;6.70;99.90
32728;DHT22;55292;51.844;19.246;2023-04-12T01:48:10;6.70;99.90
32728;DHT22;55292;51.844;19.246;2023-04-12T01:53:28;6.60;99.90
32728;DHT22;55292;51.844;19.246;2023-04-12T01:58:36;6.70;99.90
32728;DHT22;55292;51.844;19.246;2023-04-12T02:03:42;6.70;99.90
32728;DHT22;55292;51.844;19.246;2023-04-12T02:08:46;6.80;99.90
32728;DHT22;55292;51.844;19.246;2023-04-12T02:13:49;6.80;99.90
32728;DHT22;55292;51.844;19.246;2023-04-12T02:18:52;6.80;99.90
32728;DHT22;55292;51.844;19.246;2023-04-12T02:23:54;6.70;99.90
32728;DHT22;55292;51.844;19.246;2023-04-12T02:28:57;6.80;99.90
32728;DHT22;55292;51.844;19.246;2023-04-12T02:34:00;6.80;99.90
32728;DHT22;55292;51.844;19.246;2023-04-12T02:39:03;6.90;99.90
32728;DHT22;55292;51.844;19.246;2023-04-12T02:44:09;6.80;99.90
32728;DHT22;55292;51.844;19.246;2023-04-12T02:49:15;6.80;99.90
32728;DHT22;55292;51.844;19.246;2023-04-12T02:54:18;6.90;99.90
32728;DHT22;55292;51.844;19.246;2023-04-12T02:59:30;6.80;99.90
32728;DHT22;55292;51.844;19.246;2023-04-12T03:04:47;6.80;99.90
32728;DHT22;55292;51.844;19.246;2023-04-12T03:09:58;6.90;99.90
32728;DHT22;55292;51.844;19.246;2023-04-12T03:15:01;6.90;99.90
32728;DHT22;55292;51.844;19.246;2023-04-12T03:20:07;6.80;99.90
32728;DHT22;55292;51.844;19.246;2023-04-12T03:25:15;6.90;99.90
32728;DHT22;55292;51.844;19.246;2023-04-12T03:30:28;6.70;99.90
32728;DHT22;55292;51.844;19.246;2023-04-12T03:35:32;6.70;99.90
32728;DHT22;55292;51.844;19.246;2023-04-12T03:40:36;6.80;99.90
32728;DHT22;55292;51.844;19.246;2023-04-12T03:45:38;6.80;99.90
32728;DHT22;55292;51.844;19.246;2023-04-12T03:50:42;6.80;99.90
32728;DHT22;55292;51.844;19.246;2023-04-12T03:55:54;6.90;99.90
32728;DHT22;55292;51.844;19.246;2023-04-12T04:01:02;6.90;99.90
32728;DHT22;55292;51.844;19.246;2023-04-12T04:06:09;6.80;99.90
32728;DHT22;55292;51.844;19.246;2023-04-12T04:11:13;6.90;99.90
32728;DHT22;55292;51.844;19.246;2023-04-12T04:16:19;6.90;99.90
32728;DHT22;55292;51.844;19.246;2023-04-12T04:21:24;6.90;99.90
32728;DHT22;55292;51.844;19.246;2023-04-12T04:26:31;6.90;99.90
32728;DHT22;55292;51.844;19.246;2023-04-12T04:31:57;6.90;99.90
32728;DHT22;55292;51.844;19.246;2023-04-12T04:37:01;7.00;99.90
32728;DHT22;55292;51.844;19.246;2023-04-12T04:42:04;7.00;99.90
32728;DHT22;55292;51.844;19.246;2023-04-12T04:47:13;7.00;99.90
32728;DHT22;55292;51.844;19.246;2023-04-12T04:52:16;7.10;99.90
32728;DHT22;55292;51.844;19.246;2023-04-12T04:57:20;7.00;99.90
32728;DHT22;55292;51.844;19.246;2023-04-12T05:02:24;7.00;99.90
32728;DHT22;55292;51.844;19.246;2023-04-12T05:07:27;7.00;99.90
32728;DHT22;55292;51.844;19.246;2023-04-12T05:12:30;7.00;99.90
32728;DHT22;55292;51.844;19.246;2023-04-12T05:17:33;6.90;99.90
32728;DHT22;55292;51.844;19.246;2023-04-12T05:22:35;7.00;99.90
32728;DHT22;55292;51.844;19.246;2023-04-12T05:27:38;7.20;99.90
32728;DHT22;55292;51.844;19.246;2023-04-12T05:32:43;7.20;99.90
32728;DHT22;55292;51.844;19.246;2023-04-12T05:37:48;7.20;99.90
32728;DHT22;55292;51.844;19.246;2023-04-12T05:42:50;7.30;99.90
32728;DHT22;55292;51.844;19.246;2023-04-12T05:47:54;7.40;99.90
32728;DHT22;55292;51.844;19.246;2023-04-12T05:52:59;7.30;99.90
32728;DHT22;55292;51.844;19.246;2023-04-12T05:58:05;7.30;99.90
32728;DHT22;55292;51.844;19.246;2023-04-12T06:03:08;7.30;99.90
32728;DHT22;55292;51.844;19.246;2023-04-12T06:08:13;7.40;99.90
32728;DHT22;55292;51.844;19.246;2023-04-12T06:13:16;7.50;99.90
32728;DHT22;55292;51.844;19.246;2023-04-12T06:18:20;7.70;99.90
32728;DHT22;55292;51.844;19.246;2023-04-12T06:23:22;7.70;99.90
32728;DHT22;55292;51.844;19.246;2023-04-12T06:28:26;7.70;99.90
32728;DHT22;55292;51.844;19.246;2023-04-12T06:33:32;7.70;99.90
32728;DHT22;55292;51.844;19.246;2023-04-12T06:38:35;7.90;99.90
32728;DHT22;55292;51.844;19.246;2023-04-12T06:43:38;7.90;99.90
32728;DHT22;55292;51.844;19.246;2023-04-12T06:48:41;8.00;99.90
32728;DHT22;55292;51.844;19.246;2023-04-12T06:53:43;7.90;99.90
32728;DHT22;55292;51.844;19.246;2023-04-12T06:58:46;8.10;99.90
32728;DHT22;55292;51.844;19.246;2023-04-12T07:03:51;8.50;99.90
32728;DHT22;55292;51.844;19.246;2023-04-12T07:08:53;9.00;99.90
32728;DHT22;55292;51.844;19.246;2023-04-12T07:13:57;9.30;99.90
32728;DHT22;55292;51.844;19.246;2023-04-12T07:19:02;9.50;99.90
32728;DHT22;55292;51.844;19.246;2023-04-12T07:24:05;9.60;99.90
32728;DHT22;55292;51.844;19.246;2023-04-12T07:29:07;9.90;99.90
32728;DHT22;55292;51.844;19.246;2023-04-12T07:34:11;10.10;99.90
32728;DHT22;55292;51.844;19.246;2023-04-12T07:39:14;10.00;99.90
32728;DHT22;55292;51.844;19.246;2023-04-12T07:44:17;10.10;99.90
32728;DHT22;55292;51.844;19.246;2023-04-12T07:49:19;10.00;99.90
32728;DHT22;55292;51.844;19.246;2023-04-12T07:54:25;10.00;99.90
32728;DHT22;55292;51.844;19.246;2023-04-12T07:59:28;10.10;99.90
32728;DHT22;55292;51.844;19.246;2023-04-12T08:04:31;10.30;99.90
32728;DHT22;55292;51.844;19.246;2023-04-12T08:09:34;10.40;99.90
32728;DHT22;55292;51.844;19.246;2023-04-12T08:14:37;10.10;99.90
32728;DHT22;55292;51.844;19.246;2023-04-12T08:19:42;10.40;99.90
32728;DHT22;55292;51.844;19.246;2023-04-12T08:24:44;11.00;99.90
32728;DHT22;55292;51.844;19.246;2023-04-12T08:29:47;11.10;99.90
32728;DHT22;55292;51.844;19.246;2023-04-12T08:34:50;11.20;99.90
32728;DHT22;55292;51.844;19.246;2023-04-12T08:39:53;11.20;99.90
32728;DHT22;55292;51.844;19.246;2023-04-12T08:44:57;10.90;99.90
32728;DHT22;55292;51.844;19.246;2023-04-12T08:50:01;10.60;99.90
32728;DHT22;55292;51.844;19.246;2023-04-12T08:55:05;10.30;99.90
32728;DHT22;55292;51.844;19.246;2023-04-12T09:00:09;10.30;99.90
32728;DHT22;55292;51.844;19.246;2023-04-12T09:05:12;10.10;99.90
32728;DHT22;55292;51.844;19.246;2023-04-12T09:10:33;10.60;99.90
32728;DHT22;55292;51.844;19.246;2023-04-12T09:15:47;11.00;99.90
32728;DHT22;55292;51.844;19.246;2023-04-12T09:20:50;11.10;99.90
32728;DHT22;55292;51.844;19.246;2023-04-12T09:26:07;11.30;99.90
32728;DHT22;55292;51.844;19.246;2023-04-12T09:31:14;11.80;99.90
32728;DHT22;55292;51.844;19.246;2023-04-12T09:36:18;12.30;99.90
32728;DHT22;55292;51.844;19.246;2023-04-12T09:41:22;12.90;99.90
32728;DHT22;55292;51.844;19.246;2023-04-12T09:46:28;13.20;99.90
32728;DHT22;55292;51.844;19.246;2023-04-12T09:51:32;13.40;99.90
32728;DHT22;55292;51.844;19.246;2023-04-12T09:56:35;12.70;99.90
32728;DHT22;55292;51.844;19.246;2023-04-12T10:01:42;12.20;99.90
32728;DHT22;55292;51.844;19.246;2023-04-12T10:06:45;11.40;99.90
32728;DHT22;55292;51.844;19.246;2023-04-12T10:11:50;10.90;99.90
32728;DHT22;55292;51.844;19.246;2023-04-12T10:16:55;11.10;99.90
32728;DHT22;55292;51.844;19.246;2023-04-12T10:21:59;10.90;99.90
32728;DHT22;55292;51.844;19.246;2023-04-12T10:27:03;11.00;99.90
32728;DHT22;55292;51.844;19.246;2023-04-12T10:32:21;11.30;99.90
32728;DHT22;55292;51.844;19.246;2023-04-12T10:42:46;12.90;99.90
32728;DHT22;55292;51.844;19.246;2023-04-12T11:14:37;12.00;99.90
32728;DHT22;55292;51.844;19.246;2023-04-12T11:19:53;11.80;99.90
32728;DHT22;55292;51.844;19.246;2023-04-12T11:25:01;11.70;99.90
32728;DHT22;55292;51.844;19.246;2023-04-12T11:30:12;11.80;99.90
32728;DHT22;55292;51.844;19.246;2023-04-12T11:35:17;11.80;99.90
32728;DHT22;55292;51.844;19.246;2023-04-12T11:40:25;12.10;99.90
32728;DHT22;55292;51.844;19.246;2023-04-12T11:45:29;12.20;99.90
32728;DHT22;55292;51.844;19.246;2023-04-12T11:50:33;12.40;99.90
32728;DHT22;55292;51.844;19.246;2023-04-12T11:55:40;12.50;99.90
32728;DHT22;55292;51.844;19.246;2023-04-12T12:00:44;12.00;99.90
32728;DHT22;55292;51.844;19.246;2023-04-12T12:05:47;12.20;99.90
32728;DHT22;55292;51.844;19.246;2023-04-12T12:10:50;12.40;99.90
32728;DHT22;55292;51.844;19.246;2023-04-12T12:16:08;11.90;99.90
32728;DHT22;55292;51.844;19.246;2023-04-12T12:21:13;11.90;99.90
32728;DHT22;55292;51.844;19.246;2023-04-12T12:26:23;12.10;99.90
32728;DHT22;55292;51.844;19.246;2023-04-12T12:31:27;12.20;99.90
32728;DHT22;55292;51.844;19.246;2023-04-12T12:36:32;12.10;99.90
32728;DHT22;55292;51.844;19.246;2023-04-12T12:41:36;12.00;99.90
32728;DHT22;55292;51.844;19.246;2023-04-12T12:46:39;11.60;99.90
32728;DHT22;55292;51.844;19.246;2023-04-12T12:51:58;11.30;99.90
32728;DHT22;55292;51.844;19.246;2023-04-12T12:57:01;11.30;99.90
32728;DHT22;55292;51.844;19.246;2023-04-12T13:02:04;11.20;99.90
32728;DHT22;55292;51.844;19.246;2023-04-12T13:07:09;11.40;99.90
32728;DHT22;55292;51.844;19.246;2023-04-12T13:12:11;11.90;99.90
32728;DHT22;55292;51.844;19.246;2023-04-12T13:17:17;12.10;99.90
32728;DHT22;55292;51.844;19.246;2023-04-12T13:22:19;12.50;99.90
32728;DHT22;55292;51.844;19.246;2023-04-12T13:27:22;12.80;99.90
32728;DHT22;55292;51.844;19.246;2023-04-12T13:32:25;13.00;99.90
32728;DHT22;55292;51.844;19.246;2023-04-12T13:37:28;12.70;99.90
32728;DHT22;55292;51.844;19.246;2023-04-12T13:42:31;12.70;99.90
32728;DHT22;55292;51.844;19.246;2023-04-12T13:47:34;12.60;99.90
32728;DHT22;55292;51.844;19.246;2023-04-12T13:52:37;12.40;99.90
32728;DHT22;55292;51.844;19.246;2023-04-12T13:57:40;12.20;99.90
32728;DHT22;55292;51.844;19.246;2023-04-12T14:02:43;12.00;99.90
32728;DHT22;55292;51.844;19.246;2023-04-12T14:07:46;12.30;99.90
32728;DHT22;55292;51.844;19.246;2023-04-12T14:12:51;12.20;99.90
32728;DHT22;55292;51.844;19.246;2023-04-12T14:17:53;12.40;99.90
32728;DHT22;55292;51.844;19.246;2023-04-12T14:22:57;12.40;99.90
32728;DHT22;55292;51.844;19.246;2023-04-12T14:27:59;12.80;99.90
32728;DHT22;55292;51.844;19.246;2023-04-12T14:33:03;13.20;99.90
32728;DHT22;55292;51.844;19.246;2023-04-12T14:38:06;13.50;99.90
32728;DHT22;55292;51.844;19.246;2023-04-12T14:43:10;13.60;99.90
32728;DHT22;55292;51.844;19.246;2023-04-12T14:48:12;13.50;99.90
32728;DHT22;55292;51.844;19.246;2023-04-12T14:53:15;12.10;99.90
32728;DHT22;55292;51.844;19.246;2023-04-12T14:58:19;13.40;99.90
32728;DHT22;55292;51.844;19.246;2023-04-12T15:03:22;13.40;99.90
32728;DHT22;55292;51.844;19.246;2023-04-12T15:08:25;13.20;99.90
32728;DHT22;55292;51.844;19.246;2023-04-12T15:13:30;12.60;99.90
32728;DHT22;55292;51.844;19.246;2023-04-12T15:18:37;12.20;99.90
32728;DHT22;55292;51.844;19.246;2023-04-12T15:23:40;12.10;99.90
32728;DHT22;55292;51.844;19.246;2023-04-12T15:28:43;12.10;99.90
32728;DHT22;55292;51.844;19.246;2023-04-12T15:33:46;12.10;99.90
32728;DHT22;55292;51.844;19.246;2023-04-12T15:38:50;12.10;99.90
32728;DHT22;55292;51.844;19.246;2023-04-12T15:43:53;12.20;99.90
32728;DHT22;55292;51.844;19.246;2023-04-12T15:48:56;12.10;98.60
32728;DHT22;55292;51.844;19.246;2023-04-12T15:54:01;12.00;99.90
32728;DHT22;55292;51.844;19.246;2023-04-12T15:59:05;13.50;99.90
32728;DHT22;55292;51.844;19.246;2023-04-12T16:04:08;11.70;99.90
32728;DHT22;55292;51.844;19.246;2023-04-12T16:09:11;11.40;99.90
32728;DHT22;55292;51.844;19.246;2023-04-12T16:14:13;11.10;99.90
32728;DHT22;55292;51.844;19.246;2023-04-12T16:19:16;10.90;99.90
32728;DHT22;55292;51.844;19.246;2023-04-12T16:24:20;10.60;99.90
32728;DHT22;55292;51.844;19.246;2023-04-12T16:29:22;10.30;99.90
32728;DHT22;55292;51.844;19.246;2023-04-12T16:34:25;10.00;99.90
32728;DHT22;55292;51.844;19.246;2023-04-12T16:39:28;9.90;99.90
32728;DHT22;55292;51.844;19.246;2023-04-12T16:44:31;9.80;99.90
32728;DHT22;55292;51.844;19.246;2023-04-12T16:49:37;9.50;99.90
32728;DHT22;55292;51.844;19.246;2023-04-12T16:54:39;9.30;99.90
32728;DHT22;55292;51.844;19.246;2023-04-12T16:59:44;9.00;99.90
32728;DHT22;55292;51.844;19.246;2023-04-12T17:04:47;8.60;99.90
32728;DHT22;55292;51.844;19.246;2023-04-12T17:09:50;8.40;99.90
32728;DHT22;55292;51.844;19.246;2023-04-12T17:14:52;8.00;99.90
32728;DHT22;55292;51.844;19.246;2023-04-12T17:19:55;8.00;99.90
32728;DHT22;55292;51.844;19.246;2023-04-12T17:24:58;7.70;99.90
32728;DHT22;55292;51.844;19.246;2023-04-12T17:30:01;7.40;99.90
32728;DHT22;55292;51.844;19.246;2023-04-12T17:35:05;7.20;99.90
32728;DHT22;55292;51.844;19.246;2023-04-12T17:40:08;7.00;99.90
32728;DHT22;55292;51.844;19.246;2023-04-12T17:45:14;6.80;99.90
32728;DHT22;55292;51.844;19.246;2023-04-12T17:50:17;6.20;99.90
32728;DHT22;55292;51.844;19.246;2023-04-12T17:55:20;6.10;99.90
32728;DHT22;55292;51.844;19.246;2023-04-12T18:00:25;6.30;99.90
32728;DHT22;55292;51.844;19.246;2023-04-12T18:05:28;6.10;99.90
32728;DHT22;55292;51.844;19.246;2023-04-12T18:10:31;6.10;99.90
32728;DHT22;55292;51.844;19.246;2023-04-12T18:15:34;5.90;99.90
32728;DHT22;55292;51.844;19.246;2023-04-12T18:20:37;5.80;99.90
32728;DHT22;55292;51.844;19.246;2023-04-12T18:25:41;5.80;99.90
32728;DHT22;55292;51.844;19.246;2023-04-12T18:30:46;5.90;99.90
32728;DHT22;55292;51.844;19.246;2023-04-12T18:35:49;5.90;99.90
32728;DHT22;55292;51.844;19.246;2023-04-12T18:40:53;5.90;99.90
32728;DHT22;55292;51.844;19.246;2023-04-12T18:45:56;5.80;99.90
32728;DHT22;55292;51.844;19.246;2023-04-12T18:50:58;5.90;99.90
32728;DHT22;55292;51.844;19.246;2023-04-12T18:56:27;5.30;99.90
32728;DHT22;55292;51.844;19.246;2023-04-12T19:01:34;5.10;99.90
32728;DHT22;55292;51.844;19.246;2023-04-12T19:06:40;5.00;99.90
32728;DHT22;55292;51.844;19.246;2023-04-12T19:11:43;5.20;99.90
32728;DHT22;55292;51.844;19.246;2023-04-12T19:16:47;5.10;99.90
32728;DHT22;55292;51.844;19.246;2023-04-12T19:21:50;4.80;99.90
32728;DHT22;55292;51.844;19.246;2023-04-12T19:31:58;5.00;99.90
32728;DHT22;55292;51.844;19.246;2023-04-12T19:37:02;4.90;99.90
32728;DHT22;55292;51.844;19.246;2023-04-12T19:42:06;4.70;99.90
32728;DHT22;55292;51.844;19.246;2023-04-12T19:47:08;4.40;99.90
32728;DHT22;55292;51.844;19.246;2023-04-12T19:52:11;4.30;99.90
32728;DHT22;55292;51.844;19.246;2023-04-12T19:57:16;4.30;99.90
32728;DHT22;55292;51.844;19.246;2023-04-12T20:17:29;4.10;99.90
32728;DHT22;55292;51.844;19.246;2023-04-12T20:22:32;3.90;99.90
32728;DHT22;55292;51.844;19.246;2023-04-12T20:27:37;3.80;99.90
32728;DHT22;55292;51.844;19.246;2023-04-12T20:32:40;3.80;99.90
32728;DHT22;55292;51.844;19.246;2023-04-12T20:58:02;2.30;99.90
32728;DHT22;55292;51.844;19.246;2023-04-12T21:08:12;2.00;99.90
32728;DHT22;55292;51.844;19.246;2023-04-12T21:18:23;1.90;99.90
32728;DHT22;55292;51.844;19.246;2023-04-12T21:23:27;2.10;99.90
32728;DHT22;55292;51.844;19.246;2023-04-12T21:28:30;2.60;99.90
32728;DHT22;55292;51.844;19.246;2023-04-12T21:33:33;2.70;99.90
32728;DHT22;55292;51.844;19.246;2023-04-12T21:38:39;3.00;99.90
32728;DHT22;55292;51.844;19.246;2023-04-12T21:43:43;3.10;99.90
32728;DHT22;55292;51.844;19.246;2023-04-12T21:48:48;3.40;99.90
32728;DHT22;55292;51.844;19.246;2023-04-12T21:53:51;3.70;99.90
32728;DHT22;55292;51.844;19.246;2023-04-12T21:58:54;3.50;99.90
32728;DHT22;55292;51.844;19.246;2023-04-12T22:04:01;3.50;99.90
32728;DHT22;55292;51.844;19.246;2023-04-12T22:09:03;3.40;99.90
32728;DHT22;55292;51.844;19.246;2023-04-12T22:14:06;3.50;99.90
32728;DHT22;55292;51.844;19.246;2023-04-12T22:19:09;2.80;99.90
32728;DHT22;55292;51.844;19.246;2023-04-12T22:24:12;2.60;99.90
32728;DHT22;55292;51.844;19.246;2023-04-12T22:29:15;2.30;99.90
32728;DHT22;55292;51.844;19.246;2023-04-12T22:34:18;1.90;99.90
32728;DHT22;55292;51.844;19.246;2023-04-12T22:39:21;1.60;99.90
32728;DHT22;55292;51.844;19.246;2023-04-12T22:44:25;1.80;99.90
32728;DHT22;55292;51.844;19.246;2023-04-12T22:49:30;2.10;99.90
32728;DHT22;55292;51.844;19.246;2023-04-12T22:54:33;2.50;99.90
32728;DHT22;55292;51.844;19.246;2023-04-12T22:59:36;2.70;99.90
32728;DHT22;55292;51.844;19.246;2023-04-12T23:04:38;2.70;99.90
32728;DHT22;55292;51.844;19.246;2023-04-12T23:09:42;2.90;99.90
32728;DHT22;55292;51.844;19.246;2023-04-12T23:14:46;2.90;99.90
32728;DHT22;55292;51.844;19.246;2023-04-12T23:19:49;3.00;99.90
32728;DHT22;55292;51.844;19.246;2023-04-12T23:24:53;3.40;99.90
32728;DHT22;55292;51.844;19.246;2023-04-12T23:29:55;3.40;99.90
32728;DHT22;55292;51.844;19.246;2023-04-12T23:34:58;3.50;99.90
32728;DHT22;55292;51.844;19.246;2023-04-12T23:40:03;3.50;99.90
32728;DHT22;55292;51.844;19.246;2023-04-12T23:45:11;3.70;99.90
32728;DHT22;55292;51.844;19.246;2023-04-12T23:50:14;3.80;99.90
32728;DHT22;55292;51.844;19.246;2023-04-12T23:55:17;3.80;99.90
